KGCK/GCK METAR and TAF weather

Enter ICAO airport designator
Station Type Date Time Source
KGCK METAR 2019/04/22 23:54 UTC NOAA

KGCK 222354Z 03016KT 10SM CLR 17/05 A3012 RMK AO2 SLP188 T01670050 10189 20144 51003


Station Type Date Time Source
KGCK Decoded METAR 2019/04/22 23:54 UTC NOAA

GARDEN CITY REGIONAL AIRPORT, KS, United States (KGCK) 37-55N 100-43W 877M
Apr 22, 2019 - 07:54 PM EDT / 2019.04.22 2354 UTC
Wind: from the NNE (030 degrees) at 18 MPH (16 KT):0
Visibility: 10 mile(s):0
Sky conditions: clear
Temperature: 62.1 F (16.7 C)
Dew Point: 41.0 F (5.0 C)
Relative Humidity: 45%
Pressure (altimeter): 30.12 in. Hg (1019 hPa)
Pressure tendency: 0.01 inches (0.3 hPa) higher than three hours ago
ob: KGCK 222354Z 03016KT 10SM CLR 17/05 A3012 RMK AO2 SLP188 T01670050 10189 20144 51003
cycle: 0

Station Type Date Time Source
KGCK TAF 2019/04/22 19:30 UTC NOAA

TAF
AMD KGCK 221927Z 2219/2318 34017G28KT P6SM SKC
FM222200 02014G23KT P6SM BKN250
FM230100 03012KT P6SM BKN180

Example: see airport list